EDT,Max TemperatureF,Mean TemperatureF,Min TemperatureF,Max Dew PointF,MeanDew PointF,Min DewpointF,Max Humidity, Mean Humidity, Min Humidity, Max Sea Level PressureIn, Mean Sea Level PressureIn, Min Sea Level PressureIn, Max VisibilityMiles, Mean VisibilityMiles, Min VisibilityMiles, Max Wind SpeedMPH, Mean Wind SpeedMPH, Max Gust SpeedMPH,PrecipitationIn, CloudCover, Events, WindDirDegrees
2012-3-1,36,35,33,34,32,28,100,91,82,29.98,29.77,29.68,10,5,2,9,3,13,0.20,8,Rain,347
2012-3-2,38,35,31,34,28,24,82,76,69,30.11,30.00,29.82,10,9,4,12,6,17,0.19,8,Rain,129
2012-3-3,58,47,36,43,33,11,100,58,15,29.80,29.56,29.40,10,4,1,25,7,32,0.07,6,Rain,289
2012-3-4,45,37,29,21,18,16,69,51,33,29.73,29.64,29.56,10,10,10,18,6,26,0.00,3,,269
2012-3-5,40,33,25,18,7,-1,58,39,20,30.39,30.03,29.74,10,10,10,18,9,24,0.00,1,,287
2012-3-6,43,29,15,21,11,5,80,52,24,30.61,30.53,30.40,10,10,10,13,3,17,0.00,0,,161
2012-3-7,62,45,27,37,27,19,75,51,27,30.53,30.39,30.26,10,10,10,15,6,23,0.00,0,,177
2012-3-8,71,54,36,47,43,33,85,63,40,30.25,30.01,29.72,10,10,10,20,9,30,0.00,3,,196
2012-3-9,65,49,32,46,26,15,85,56,26,30.25,30.04,29.81,10,10,4,24,9,33,0.15,4,Rain,306
2012-3-10,42,34,26,19,12,7,69,49,28,30.50,30.43,30.27,10,10,10,21,7,30,0.00,1,,311
2012-3-11,63,43,23,27,21,15,81,51,20,30.49,30.40,30.27,10,10,10,16,6,25,0.00,0,,214
2012-3-12,72,55,37,39,30,25,70,44,17,30.29,30.17,30.08,10,10,10,13,3,20,0.00,1,,198
2012-3-13,76,64,51,52,45,36,77,55,33,30.06,29.95,29.85,10,10,10,17,5,23,T,5,,187
2012-3-14,68,54,39,46,32,17,93,54,15,30.20,30.08,29.94,10,10,6,20,5,25,0.00,0,,295
2012-3-15,55,45,34,40,37,31,92,76,59,30.30,30.27,30.21,10,10,7,13,4,17,0.00,3,,142
2012-3-16,54,47,40,45,41,38,96,84,71,30.28,30.18,30.08,10,7,1,8,3,12,0.04,6,Rain,160
2012-3-17,67,52,37,46,41,36,100,71,42,30.35,30.27,30.19,10,5,0,10,3,16,0.00,2,Fog,180
2012-3-18,73,58,42,50,45,40,89,67,44,30.34,30.26,30.14,10,8,4,13,5,15,0.00,3,,206
2012-3-19,79,61,42,54,48,40,96,67,37,30.19,30.16,30.10,10,8,3,8,2,15,0.00,1,,231
2012-3-20,77,62,46,57,50,43,86,61,36,30.31,30.25,30.19,10,10,9,14,3,17,0.00,1,,194
2012-3-21,72,61,50,58,55,49,93,73,53,30.35,30.29,30.23,10,10,5,10,2,12,0.00,6,,192
2012-3-22,79,64,49,57,52,48,100,70,39,30.25,30.18,30.03,10,5,0,10,2,15,0.00,3,Fog,209
2012-3-23,75,63,51,54,46,35,96,62,27,30.13,30.06,30.01,10,9,5,14,4,18,0.00,1,,354
2012-3-24,65,59,52,41,27,21,59,40,20,30.08,30.04,29.98,10,10,10,13,5,17,T,5,Rain,83
2012-3-25,56,50,43,41,34,23,83,59,35,29.97,29.84,29.72,10,10,10,12,3,17,T,6,Rain,36
2012-3-26,52,42,32,39,19,0,92,56,20,30.11,29.85,29.67,10,10,10,26,11,37,0.00,1,,329
2012-3-27,49,38,27,19,4,-1,48,31,14,30.28,30.20,30.12,10,10,10,15,6,21,0.00,0,,342
2012-3-28,64,50,35,45,30,4,71,45,19,30.12,29.76,29.50,10,8,2,10,5,15,0.28,4,Rain-Thunderstorm,149
2012-3-29,56,49,42,45,33,24,66,54,42,29.99,29.77,29.59,10,10,10,21,12,29,0.01,7,Rain,318
2012-3-30,54,43,31,33,19,12,63,41,19,30.07,30.00,29.94,10,10,7,14,5,18,0.04,2,Rain,360
2012-3-31,44,41,37,37,36,34,92,79,65,29.99,29.92,29.88,10,7,2,9,4,14,0.21,8,Rain,36